Vining, Minnesota
Current Conditions -  °F | °C
As of 11:53 AM on Monday 24 Nov 2014 (Local Time) from KADC Reporting Station
Overcast Overcast  
Wind Chill: -7°   Ceiling: 1900
Heat Index: 10°   Visibility: 7mi
Dew Point:   Wind: 17mph
Humidity: 79%   Direction: 310°NW
Pressure: 29.59"   Gusts: 21mph
Location:  46.26°N, 95.54°W
Report Text: KADC 241753Z AUTO 31015G18KT 7SM OVC019 M12/M15 A2959 RMK AO2
Loading
Personal Weather Stations






























Interactive Weather Map New forecast layout! Learn more

10-Day Weather Forecast

Advertisements
Track Severe Weather on mobile